sensor_id;sensor_type;location;lat;lon;timestamp;P1;durP1;ratioP1;P2;durP2;ratioP2
20679;SDS011;10499;47.494;7.608;2023-02-15T00:01:40;0.50;;;0.50;;
20679;SDS011;10499;47.494;7.608;2023-02-15T00:04:07;0.40;;;0.40;;
20679;SDS011;10499;47.494;7.608;2023-02-15T00:06:35;0.50;;;0.50;;
20679;SDS011;10499;47.494;7.608;2023-02-15T00:09:01;0.50;;;0.50;;
20679;SDS011;10499;47.494;7.608;2023-02-15T00:11:28;0.50;;;0.50;;
20679;SDS011;10499;47.494;7.608;2023-02-15T00:14:10;0.50;;;0.50;;
20679;SDS011;10499;47.494;7.608;2023-02-15T00:16:42;0.50;;;0.50;;
20679;SDS011;10499;47.494;7.608;2023-02-15T00:19:09;0.67;;;0.67;;
20679;SDS011;10499;47.494;7.608;2023-02-15T00:21:39;0.40;;;0.40;;
20679;SDS011;10499;47.494;7.608;2023-02-15T00:24:05;0.50;;;0.50;;
20679;SDS011;10499;47.494;7.608;2023-02-15T00:26:33;0.50;;;0.50;;
20679;SDS011;10499;47.494;7.608;2023-02-15T00:29:03;0.50;;;0.50;;
20679;SDS011;10499;47.494;7.608;2023-02-15T00:31:29;0.60;;;0.60;;
20679;SDS011;10499;47.494;7.608;2023-02-15T00:34:03;0.63;;;0.63;;
20679;SDS011;10499;47.494;7.608;2023-02-15T00:36:30;0.70;;;0.70;;
20679;SDS011;10499;47.494;7.608;2023-02-15T00:38:56;0.70;;;0.70;;
20679;SDS011;10499;47.494;7.608;2023-02-15T00:41:22;0.70;;;0.70;;
20679;SDS011;10499;47.494;7.608;2023-02-15T00:43:48;0.60;;;0.60;;
20679;SDS011;10499;47.494;7.608;2023-02-15T00:46:13;0.57;;;0.57;;
20679;SDS011;10499;47.494;7.608;2023-02-15T00:48:39;0.60;;;0.60;;
20679;SDS011;10499;47.494;7.608;2023-02-15T00:51:05;0.60;;;0.60;;
20679;SDS011;10499;47.494;7.608;2023-02-15T00:53:31;0.73;;;0.73;;
20679;SDS011;10499;47.494;7.608;2023-02-15T00:55:57;0.53;;;0.53;;
20679;SDS011;10499;47.494;7.608;2023-02-15T00:58:23;0.60;;;0.60;;
20679;SDS011;10499;47.494;7.608;2023-02-15T01:00:49;0.50;;;0.50;;
20679;SDS011;10499;47.494;7.608;2023-02-15T01:03:15;0.43;;;0.43;;
20679;SDS011;10499;47.494;7.608;2023-02-15T01:05:42;0.50;;;0.50;;
20679;SDS011;10499;47.494;7.608;2023-02-15T01:08:08;0.50;;;0.50;;
20679;SDS011;10499;47.494;7.608;2023-02-15T01:10:35;0.50;;;0.50;;
20679;SDS011;10499;47.494;7.608;2023-02-15T01:13:02;0.50;;;0.50;;
20679;SDS011;10499;47.494;7.608;2023-02-15T01:15:28;0.50;;;0.50;;
20679;SDS011;10499;47.494;7.608;2023-02-15T01:17:53;0.50;;;0.50;;
20679;SDS011;10499;47.494;7.608;2023-02-15T01:20:20;0.50;;;0.50;;
20679;SDS011;10499;47.494;7.608;2023-02-15T01:22:47;0.50;;;0.50;;
20679;SDS011;10499;47.494;7.608;2023-02-15T01:25:15;0.50;;;0.50;;
20679;SDS011;10499;47.494;7.608;2023-02-15T01:27:44;0.50;;;0.50;;
20679;SDS011;10499;47.494;7.608;2023-02-15T01:30:10;0.40;;;0.40;;
20679;SDS011;10499;47.494;7.608;2023-02-15T01:32:36;0.43;;;0.43;;
20679;SDS011;10499;47.494;7.608;2023-02-15T01:35:02;0.40;;;0.40;;
20679;SDS011;10499;47.494;7.608;2023-02-15T01:37:32;0.60;;;0.60;;
20679;SDS011;10499;47.494;7.608;2023-02-15T01:39:59;0.50;;;0.50;;
20679;SDS011;10499;47.494;7.608;2023-02-15T01:42:25;0.50;;;0.50;;
20679;SDS011;10499;47.494;7.608;2023-02-15T01:47:28;0.40;;;0.40;;
20679;SDS011;10499;47.494;7.608;2023-02-15T01:55:42;0.40;;;0.40;;
20679;SDS011;10499;47.494;7.608;2023-02-15T01:58:16;0.50;;;0.50;;
20679;SDS011;10499;47.494;7.608;2023-02-15T02:00:43;0.40;;;0.40;;
20679;SDS011;10499;47.494;7.608;2023-02-15T02:03:09;0.40;;;0.40;;
20679;SDS011;10499;47.494;7.608;2023-02-15T02:05:35;0.50;;;0.50;;
20679;SDS011;10499;47.494;7.608;2023-02-15T02:08:03;0.40;;;0.40;;
20679;SDS011;10499;47.494;7.608;2023-02-15T02:10:29;0.50;;;0.50;;
20679;SDS011;10499;47.494;7.608;2023-02-15T02:12:58;0.50;;;0.50;;
20679;SDS011;10499;47.494;7.608;2023-02-15T02:16:09;0.40;;;0.40;;
20679;SDS011;10499;47.494;7.608;2023-02-15T02:18:51;0.60;;;0.60;;
20679;SDS011;10499;47.494;7.608;2023-02-15T02:37:46;0.50;;;0.50;;
20679;SDS011;10499;47.494;7.608;2023-02-15T02:40:27;0.40;;;0.40;;
20679;SDS011;10499;47.494;7.608;2023-02-15T02:46:07;0.40;;;0.40;;
20679;SDS011;10499;47.494;7.608;2023-02-15T02:48:45;0.40;;;0.40;;
20679;SDS011;10499;47.494;7.608;2023-02-15T02:51:13;0.50;;;0.50;;
20679;SDS011;10499;47.494;7.608;2023-02-15T02:53:46;0.40;;;0.40;;
20679;SDS011;10499;47.494;7.608;2023-02-15T02:58:52;0.40;;;0.40;;
20679;SDS011;10499;47.494;7.608;2023-02-15T03:01:32;0.40;;;0.40;;
20679;SDS011;10499;47.494;7.608;2023-02-15T03:04:15;0.40;;;0.40;;
20679;SDS011;10499;47.494;7.608;2023-02-15T03:06:50;0.37;;;0.37;;
20679;SDS011;10499;47.494;7.608;2023-02-15T03:12:26;0.50;;;0.50;;
20679;SDS011;10499;47.494;7.608;2023-02-15T03:15:05;0.40;;;0.40;;
20679;SDS011;10499;47.494;7.608;2023-02-15T03:17:35;0.40;;;0.40;;
20679;SDS011;10499;47.494;7.608;2023-02-15T03:20:11;0.40;;;0.40;;
20679;SDS011;10499;47.494;7.608;2023-02-15T03:22:50;0.50;;;0.50;;
20679;SDS011;10499;47.494;7.608;2023-02-15T03:25:24;0.43;;;0.43;;
20679;SDS011;10499;47.494;7.608;2023-02-15T03:27:55;0.47;;;0.47;;
20679;SDS011;10499;47.494;7.608;2023-02-15T03:30:27;0.40;;;0.40;;
20679;SDS011;10499;47.494;7.608;2023-02-15T03:32:54;0.40;;;0.40;;
20679;SDS011;10499;47.494;7.608;2023-02-15T03:35:23;0.40;;;0.40;;
20679;SDS011;10499;47.494;7.608;2023-02-15T03:37:53;0.40;;;0.40;;
20679;SDS011;10499;47.494;7.608;2023-02-15T03:43:21;0.40;;;0.40;;
20679;SDS011;10499;47.494;7.608;2023-02-15T03:45:49;0.40;;;0.40;;
20679;SDS011;10499;47.494;7.608;2023-02-15T03:48:24;0.40;;;0.40;;
20679;SDS011;10499;47.494;7.608;2023-02-15T03:50:58;0.40;;;0.40;;
20679;SDS011;10499;47.494;7.608;2023-02-15T03:53:47;0.40;;;0.40;;
20679;SDS011;10499;47.494;7.608;2023-02-15T03:56:15;0.40;;;0.40;;
20679;SDS011;10499;47.494;7.608;2023-02-15T03:58:41;0.40;;;0.40;;
20679;SDS011;10499;47.494;7.608;2023-02-15T04:04:21;0.40;;;0.40;;
20679;SDS011;10499;47.494;7.608;2023-02-15T04:06:48;0.40;;;0.40;;
20679;SDS011;10499;47.494;7.608;2023-02-15T04:09:14;0.40;;;0.40;;
20679;SDS011;10499;47.494;7.608;2023-02-15T04:11:58;0.40;;;0.40;;
20679;SDS011;10499;47.494;7.608;2023-02-15T04:14:26;0.40;;;0.40;;
20679;SDS011;10499;47.494;7.608;2023-02-15T04:17:11;0.40;;;0.40;;
20679;SDS011;10499;47.494;7.608;2023-02-15T04:19:36;0.40;;;0.40;;
20679;SDS011;10499;47.494;7.608;2023-02-15T04:22:21;0.40;;;0.40;;
20679;SDS011;10499;47.494;7.608;2023-02-15T04:25:05;0.40;;;0.40;;
20679;SDS011;10499;47.494;7.608;2023-02-15T04:27:41;0.40;;;0.40;;
20679;SDS011;10499;47.494;7.608;2023-02-15T04:30:10;0.40;;;0.40;;
20679;SDS011;10499;47.494;7.608;2023-02-15T04:32:40;0.40;;;0.40;;
20679;SDS011;10499;47.494;7.608;2023-02-15T04:35:06;0.40;;;0.40;;
20679;SDS011;10499;47.494;7.608;2023-02-15T04:37:32;0.40;;;0.40;;
20679;SDS011;10499;47.494;7.608;2023-02-15T04:39:58;0.40;;;0.40;;
20679;SDS011;10499;47.494;7.608;2023-02-15T04:42:25;0.40;;;0.40;;
20679;SDS011;10499;47.494;7.608;2023-02-15T04:44:51;0.40;;;0.40;;
20679;SDS011;10499;47.494;7.608;2023-02-15T04:47:17;0.40;;;0.40;;
20679;SDS011;10499;47.494;7.608;2023-02-15T04:49:43;0.40;;;0.40;;
20679;SDS011;10499;47.494;7.608;2023-02-15T04:52:08;0.40;;;0.40;;
20679;SDS011;10499;47.494;7.608;2023-02-15T04:54:34;0.40;;;0.40;;
20679;SDS011;10499;47.494;7.608;2023-02-15T04:57:00;0.40;;;0.40;;
20679;SDS011;10499;47.494;7.608;2023-02-15T04:59:26;0.30;;;0.30;;
20679;SDS011;10499;47.494;7.608;2023-02-15T05:01:52;0.40;;;0.40;;
20679;SDS011;10499;47.494;7.608;2023-02-15T05:04:18;0.47;;;0.47;;
20679;SDS011;10499;47.494;7.608;2023-02-15T05:06:43;0.50;;;0.50;;
20679;SDS011;10499;47.494;7.608;2023-02-15T05:09:12;0.40;;;0.40;;
20679;SDS011;10499;47.494;7.608;2023-02-15T05:11:38;0.40;;;0.40;;
20679;SDS011;10499;47.494;7.608;2023-02-15T05:14:05;0.50;;;0.50;;
20679;SDS011;10499;47.494;7.608;2023-02-15T05:16:30;0.57;;;0.57;;
20679;SDS011;10499;47.494;7.608;2023-02-15T05:18:56;0.40;;;0.40;;
20679;SDS011;10499;47.494;7.608;2023-02-15T05:21:22;0.40;;;0.40;;
20679;SDS011;10499;47.494;7.608;2023-02-15T05:23:48;0.40;;;0.40;;
20679;SDS011;10499;47.494;7.608;2023-02-15T05:26:16;0.40;;;0.40;;
20679;SDS011;10499;47.494;7.608;2023-02-15T05:29:03;0.40;;;0.40;;
20679;SDS011;10499;47.494;7.608;2023-02-15T05:31:30;0.40;;;0.40;;
20679;SDS011;10499;47.494;7.608;2023-02-15T05:33:56;0.40;;;0.40;;
20679;SDS011;10499;47.494;7.608;2023-02-15T05:36:22;0.40;;;0.40;;
20679;SDS011;10499;47.494;7.608;2023-02-15T05:38:48;0.40;;;0.40;;
20679;SDS011;10499;47.494;7.608;2023-02-15T05:41:14;0.40;;;0.40;;
20679;SDS011;10499;47.494;7.608;2023-02-15T05:43:40;0.40;;;0.40;;
20679;SDS011;10499;47.494;7.608;2023-02-15T05:46:06;0.40;;;0.40;;
20679;SDS011;10499;47.494;7.608;2023-02-15T05:48:32;0.40;;;0.40;;
20679;SDS011;10499;47.494;7.608;2023-02-15T05:51:06;0.50;;;0.50;;
20679;SDS011;10499;47.494;7.608;2023-02-15T05:53:35;0.40;;;0.40;;
20679;SDS011;10499;47.494;7.608;2023-02-15T05:56:02;0.40;;;0.40;;
20679;SDS011;10499;47.494;7.608;2023-02-15T05:58:31;0.40;;;0.40;;
20679;SDS011;10499;47.494;7.608;2023-02-15T06:00:59;0.40;;;0.40;;
20679;SDS011;10499;47.494;7.608;2023-02-15T06:03:25;0.40;;;0.40;;
20679;SDS011;10499;47.494;7.608;2023-02-15T06:05:51;0.40;;;0.40;;
20679;SDS011;10499;47.494;7.608;2023-02-15T06:08:17;0.40;;;0.40;;
20679;SDS011;10499;47.494;7.608;2023-02-15T06:10:45;0.40;;;0.40;;
20679;SDS011;10499;47.494;7.608;2023-02-15T06:13:10;0.40;;;0.40;;
20679;SDS011;10499;47.494;7.608;2023-02-15T06:15:36;0.40;;;0.40;;
20679;SDS011;10499;47.494;7.608;2023-02-15T06:18:02;0.40;;;0.40;;
20679;SDS011;10499;47.494;7.608;2023-02-15T06:20:27;0.40;;;0.40;;
20679;SDS011;10499;47.494;7.608;2023-02-15T06:22:53;0.40;;;0.40;;
20679;SDS011;10499;47.494;7.608;2023-02-15T06:25:19;0.50;;;0.50;;
20679;SDS011;10499;47.494;7.608;2023-02-15T06:27:45;0.40;;;0.40;;
20679;SDS011;10499;47.494;7.608;2023-02-15T06:30:11;0.40;;;0.40;;
20679;SDS011;10499;47.494;7.608;2023-02-15T06:32:37;0.40;;;0.40;;
20679;SDS011;10499;47.494;7.608;2023-02-15T06:35:03;0.40;;;0.40;;
20679;SDS011;10499;47.494;7.608;2023-02-15T06:37:29;0.40;;;0.40;;
20679;SDS011;10499;47.494;7.608;2023-02-15T06:39:54;0.50;;;0.50;;
20679;SDS011;10499;47.494;7.608;2023-02-15T06:42:21;0.40;;;0.40;;
20679;SDS011;10499;47.494;7.608;2023-02-15T06:44:47;0.47;;;0.47;;
20679;SDS011;10499;47.494;7.608;2023-02-15T06:47:13;0.40;;;0.40;;
20679;SDS011;10499;47.494;7.608;2023-02-15T06:49:38;0.40;;;0.40;;
20679;SDS011;10499;47.494;7.608;2023-02-15T06:52:05;0.43;;;0.43;;
20679;SDS011;10499;47.494;7.608;2023-02-15T06:54:31;0.50;;;0.50;;
20679;SDS011;10499;47.494;7.608;2023-02-15T06:56:56;0.40;;;0.40;;
20679;SDS011;10499;47.494;7.608;2023-02-15T06:59:22;0.40;;;0.40;;
20679;SDS011;10499;47.494;7.608;2023-02-15T07:01:48;0.40;;;0.40;;
20679;SDS011;10499;47.494;7.608;2023-02-15T07:04:16;0.50;;;0.50;;
20679;SDS011;10499;47.494;7.608;2023-02-15T07:06:42;0.40;;;0.40;;
20679;SDS011;10499;47.494;7.608;2023-02-15T07:09:10;0.50;;;0.50;;
20679;SDS011;10499;47.494;7.608;2023-02-15T07:11:37;0.40;;;0.40;;
20679;SDS011;10499;47.494;7.608;2023-02-15T07:14:22;0.50;;;0.50;;
20679;SDS011;10499;47.494;7.608;2023-02-15T07:16:47;0.40;;;0.40;;
20679;SDS011;10499;47.494;7.608;2023-02-15T07:19:13;0.40;;;0.40;;
20679;SDS011;10499;47.494;7.608;2023-02-15T07:21:39;0.40;;;0.40;;
20679;SDS011;10499;47.494;7.608;2023-02-15T07:24:04;0.40;;;0.40;;
20679;SDS011;10499;47.494;7.608;2023-02-15T07:26:33;0.40;;;0.40;;
20679;SDS011;10499;47.494;7.608;2023-02-15T07:28:59;0.40;;;0.40;;
20679;SDS011;10499;47.494;7.608;2023-02-15T07:31:25;0.40;;;0.40;;
20679;SDS011;10499;47.494;7.608;2023-02-15T07:33:50;0.40;;;0.40;;
20679;SDS011;10499;47.494;7.608;2023-02-15T07:36:26;0.40;;;0.40;;
20679;SDS011;10499;47.494;7.608;2023-02-15T07:38:51;0.40;;;0.40;;
20679;SDS011;10499;47.494;7.608;2023-02-15T07:41:17;0.40;;;0.40;;
20679;SDS011;10499;47.494;7.608;2023-02-15T07:43:44;0.40;;;0.40;;
20679;SDS011;10499;47.494;7.608;2023-02-15T07:46:11;0.40;;;0.40;;
20679;SDS011;10499;47.494;7.608;2023-02-15T07:48:39;0.40;;;0.40;;
20679;SDS011;10499;47.494;7.608;2023-02-15T07:51:06;0.40;;;0.40;;
20679;SDS011;10499;47.494;7.608;2023-02-15T07:53:37;0.40;;;0.40;;
20679;SDS011;10499;47.494;7.608;2023-02-15T07:56:04;0.30;;;0.30;;
20679;SDS011;10499;47.494;7.608;2023-02-15T07:58:32;0.30;;;0.30;;
20679;SDS011;10499;47.494;7.608;2023-02-15T08:03:43;0.30;;;0.30;;
20679;SDS011;10499;47.494;7.608;2023-02-15T08:06:08;0.30;;;0.30;;
20679;SDS011;10499;47.494;7.608;2023-02-15T08:08:36;0.30;;;0.30;;
20679;SDS011;10499;47.494;7.608;2023-02-15T08:11:06;0.20;;;0.20;;
20679;SDS011;10499;47.494;7.608;2023-02-15T08:21:47;0.10;;;0.10;;
20679;SDS011;10499;47.494;7.608;2023-02-15T08:24:15;0.10;;;0.10;;
20679;SDS011;10499;47.494;7.608;2023-02-15T08:26:43;0.10;;;0.10;;
20679;SDS011;10499;47.494;7.608;2023-02-15T08:29:12;0.10;;;0.10;;
20679;SDS011;10499;47.494;7.608;2023-02-15T08:31:42;0.10;;;0.10;;
20679;SDS011;10499;47.494;7.608;2023-02-15T08:34:13;0.10;;;0.10;;
20679;SDS011;10499;47.494;7.608;2023-02-15T08:36:41;0.10;;;0.10;;
20679;SDS011;10499;47.494;7.608;2023-02-15T08:39:07;0.10;;;0.10;;
20679;SDS011;10499;47.494;7.608;2023-02-15T08:41:37;0.10;;;0.10;;
20679;SDS011;10499;47.494;7.608;2023-02-15T08:44:05;0.10;;;0.10;;
20679;SDS011;10499;47.494;7.608;2023-02-15T08:46:33;0.10;;;0.10;;
20679;SDS011;10499;47.494;7.608;2023-02-15T08:49:01;0.10;;;0.10;;
20679;SDS011;10499;47.494;7.608;2023-02-15T08:51:28;0.10;;;0.10;;
20679;SDS011;10499;47.494;7.608;2023-02-15T08:53:56;0.10;;;0.10;;
20679;SDS011;10499;47.494;7.608;2023-02-15T08:56:27;0.10;;;0.10;;
20679;SDS011;10499;47.494;7.608;2023-02-15T08:58:55;0.10;;;0.10;;
20679;SDS011;10499;47.494;7.608;2023-02-15T09:01:24;0.10;;;0.10;;
20679;SDS011;10499;47.494;7.608;2023-02-15T09:03:53;0.10;;;0.10;;
20679;SDS011;10499;47.494;7.608;2023-02-15T09:06:21;0.10;;;0.10;;
20679;SDS011;10499;47.494;7.608;2023-02-15T09:08:50;0.10;;;0.10;;
20679;SDS011;10499;47.494;7.608;2023-02-15T09:11:18;0.10;;;0.10;;
20679;SDS011;10499;47.494;7.608;2023-02-15T09:16:32;0.10;;;0.10;;
20679;SDS011;10499;47.494;7.608;2023-02-15T09:18:59;0.00;;;0.00;;
20679;SDS011;10499;47.494;7.608;2023-02-15T09:21:32;0.10;;;0.10;;
20679;SDS011;10499;47.494;7.608;2023-02-15T09:24:01;0.10;;;0.10;;
20679;SDS011;10499;47.494;7.608;2023-02-15T09:26:29;0.10;;;0.10;;
20679;SDS011;10499;47.494;7.608;2023-02-15T09:28:57;0.10;;;0.10;;
20679;SDS011;10499;47.494;7.608;2023-02-15T09:31:26;0.10;;;0.10;;
20679;SDS011;10499;47.494;7.608;2023-02-15T09:33:53;0.10;;;0.10;;
20679;SDS011;10499;47.494;7.608;2023-02-15T09:36:22;0.10;;;0.10;;
20679;SDS011;10499;47.494;7.608;2023-02-15T09:38:52;0.10;;;0.10;;
20679;SDS011;10499;47.494;7.608;2023-02-15T09:41:50;0.10;;;0.10;;
20679;SDS011;10499;47.494;7.608;2023-02-15T09:57:49;0.10;;;0.10;;
20679;SDS011;10499;47.494;7.608;2023-02-15T10:11:52;0.10;;;0.10;;
20679;SDS011;10499;47.494;7.608;2023-02-15T10:22:30;0.10;;;0.10;;
20679;SDS011;10499;47.494;7.608;2023-02-15T10:27:37;0.10;;;0.10;;
20679;SDS011;10499;47.494;7.608;2023-02-15T10:30:12;0.10;;;0.10;;
20679;SDS011;10499;47.494;7.608;2023-02-15T10:33:01;0.10;;;0.10;;
20679;SDS011;10499;47.494;7.608;2023-02-15T10:38:28;0.10;;;0.10;;
20679;SDS011;10499;47.494;7.608;2023-02-15T10:49:38;0.10;;;0.10;;
20679;SDS011;10499;47.494;7.608;2023-02-15T10:52:30;0.10;;;0.10;;
20679;SDS011;10499;47.494;7.608;2023-02-15T10:55:28;0.10;;;0.10;;
20679;SDS011;10499;47.494;7.608;2023-02-15T11:03:36;0.10;;;0.10;;
20679;SDS011;10499;47.494;7.608;2023-02-15T11:06:23;0.10;;;0.10;;
20679;SDS011;10499;47.494;7.608;2023-02-15T11:08:56;0.10;;;0.10;;
20679;SDS011;10499;47.494;7.608;2023-02-15T11:11:27;0.10;;;0.10;;
20679;SDS011;10499;47.494;7.608;2023-02-15T11:14:20;0.10;;;0.10;;
20679;SDS011;10499;47.494;7.608;2023-02-15T11:17:07;0.10;;;0.10;;
20679;SDS011;10499;47.494;7.608;2023-02-15T11:19:41;0.10;;;0.10;;
20679;SDS011;10499;47.494;7.608;2023-02-15T11:22:17;0.10;;;0.10;;
20679;SDS011;10499;47.494;7.608;2023-02-15T11:24:44;0.10;;;0.10;;
20679;SDS011;10499;47.494;7.608;2023-02-15T11:30:10;0.10;;;0.10;;
20679;SDS011;10499;47.494;7.608;2023-02-15T11:32:47;0.10;;;0.10;;
20679;SDS011;10499;47.494;7.608;2023-02-15T11:37:58;0.10;;;0.10;;
20679;SDS011;10499;47.494;7.608;2023-02-15T11:40:45;0.10;;;0.10;;
20679;SDS011;10499;47.494;7.608;2023-02-15T11:43:26;0.10;;;0.10;;
20679;SDS011;10499;47.494;7.608;2023-02-15T11:45:56;0.10;;;0.10;;
20679;SDS011;10499;47.494;7.608;2023-02-15T11:48:22;0.10;;;0.10;;
20679;SDS011;10499;47.494;7.608;2023-02-15T11:50:48;0.10;;;0.10;;
20679;SDS011;10499;47.494;7.608;2023-02-15T11:53:18;0.10;;;0.10;;
20679;SDS011;10499;47.494;7.608;2023-02-15T11:55:53;0.10;;;0.10;;
20679;SDS011;10499;47.494;7.608;2023-02-15T12:01:02;0.10;;;0.10;;
20679;SDS011;10499;47.494;7.608;2023-02-15T12:03:53;0.10;;;0.10;;
20679;SDS011;10499;47.494;7.608;2023-02-15T12:09:16;0.10;;;0.10;;
20679;SDS011;10499;47.494;7.608;2023-02-15T12:11:50;0.10;;;0.10;;
20679;SDS011;10499;47.494;7.608;2023-02-15T12:14:16;0.10;;;0.10;;
20679;SDS011;10499;47.494;7.608;2023-02-15T12:16:42;0.10;;;0.10;;
20679;SDS011;10499;47.494;7.608;2023-02-15T12:22:21;0.10;;;0.10;;
20679;SDS011;10499;47.494;7.608;2023-02-15T12:24:54;0.10;;;0.10;;
20679;SDS011;10499;47.494;7.608;2023-02-15T12:27:27;0.10;;;0.10;;
20679;SDS011;10499;47.494;7.608;2023-02-15T12:32:28;0.10;;;0.10;;
20679;SDS011;10499;47.494;7.608;2023-02-15T12:35:08;0.10;;;0.10;;
20679;SDS011;10499;47.494;7.608;2023-02-15T12:37:39;0.10;;;0.10;;
20679;SDS011;10499;47.494;7.608;2023-02-15T12:40:30;0.10;;;0.10;;
20679;SDS011;10499;47.494;7.608;2023-02-15T12:42:58;0.03;;;0.03;;
20679;SDS011;10499;47.494;7.608;2023-02-15T12:48:14;0.10;;;0.10;;
20679;SDS011;10499;47.494;7.608;2023-02-15T12:50:48;0.10;;;0.10;;
20679;SDS011;10499;47.494;7.608;2023-02-15T12:53:16;0.10;;;0.10;;
20679;SDS011;10499;47.494;7.608;2023-02-15T12:55:57;0.10;;;0.10;;
20679;SDS011;10499;47.494;7.608;2023-02-15T12:58:25;0.10;;;0.10;;
20679;SDS011;10499;47.494;7.608;2023-02-15T13:06:26;0.10;;;0.10;;
20679;SDS011;10499;47.494;7.608;2023-02-15T13:08:54;0.10;;;0.10;;
20679;SDS011;10499;47.494;7.608;2023-02-15T13:11:26;0.10;;;0.10;;
20679;SDS011;10499;47.494;7.608;2023-02-15T13:14:00;0.10;;;0.10;;
20679;SDS011;10499;47.494;7.608;2023-02-15T13:16:35;0.10;;;0.10;;
20679;SDS011;10499;47.494;7.608;2023-02-15T13:19:16;0.00;;;0.00;;
20679;SDS011;10499;47.494;7.608;2023-02-15T13:22:17;0.10;;;0.10;;
20679;SDS011;10499;47.494;7.608;2023-02-15T13:24:54;0.10;;;0.10;;
20679;SDS011;10499;47.494;7.608;2023-02-15T13:27:24;0.10;;;0.10;;
20679;SDS011;10499;47.494;7.608;2023-02-15T13:29:58;0.10;;;0.10;;
20679;SDS011;10499;47.494;7.608;2023-02-15T13:38:31;0.10;;;0.10;;
20679;SDS011;10499;47.494;7.608;2023-02-15T13:41:24;0.10;;;0.10;;
20679;SDS011;10499;47.494;7.608;2023-02-15T13:52:18;0.10;;;0.10;;
20679;SDS011;10499;47.494;7.608;2023-02-15T13:57:51;0.10;;;0.10;;
20679;SDS011;10499;47.494;7.608;2023-02-15T14:00:48;0.10;;;0.10;;
20679;SDS011;10499;47.494;7.608;2023-02-15T14:25:51;0.10;;;0.10;;
20679;SDS011;10499;47.494;7.608;2023-02-15T14:31:43;0.10;;;0.10;;
20679;SDS011;10499;47.494;7.608;2023-02-15T14:34:58;0.10;;;0.10;;
20679;SDS011;10499;47.494;7.608;2023-02-15T14:40:57;0.10;;;0.10;;
20679;SDS011;10499;47.494;7.608;2023-02-15T14:54:52;0.10;;;0.10;;
20679;SDS011;10499;47.494;7.608;2023-02-15T15:08:40;0.10;;;0.10;;
20679;SDS011;10499;47.494;7.608;2023-02-15T15:14:00;0.10;;;0.10;;
20679;SDS011;10499;47.494;7.608;2023-02-15T15:16:30;0.10;;;0.10;;
20679;SDS011;10499;47.494;7.608;2023-02-15T15:19:04;0.10;;;0.10;;
20679;SDS011;10499;47.494;7.608;2023-02-15T15:32:38;0.15;;;0.15;;
20679;SDS011;10499;47.494;7.608;2023-02-15T15:38:11;0.10;;;0.10;;
20679;SDS011;10499;47.494;7.608;2023-02-15T15:44:11;0.20;;;0.20;;
20679;SDS011;10499;47.494;7.608;2023-02-15T15:46:54;0.10;;;0.10;;
20679;SDS011;10499;47.494;7.608;2023-02-15T15:49:37;0.10;;;0.10;;
20679;SDS011;10499;47.494;7.608;2023-02-15T15:52:37;0.10;;;0.10;;
20679;SDS011;10499;47.494;7.608;2023-02-15T15:55:04;0.10;;;0.10;;
20679;SDS011;10499;47.494;7.608;2023-02-15T15:57:39;0.10;;;0.10;;
20679;SDS011;10499;47.494;7.608;2023-02-15T16:03:25;0.20;;;0.20;;
20679;SDS011;10499;47.494;7.608;2023-02-15T16:05:53;0.15;;;0.15;;
20679;SDS011;10499;47.494;7.608;2023-02-15T16:11:23;0.20;;;0.20;;
20679;SDS011;10499;47.494;7.608;2023-02-15T16:13:53;0.20;;;0.20;;
20679;SDS011;10499;47.494;7.608;2023-02-15T16:16:21;0.20;;;0.20;;
20679;SDS011;10499;47.494;7.608;2023-02-15T16:18:53;0.10;;;0.10;;
20679;SDS011;10499;47.494;7.608;2023-02-15T16:21:21;0.20;;;0.20;;
20679;SDS011;10499;47.494;7.608;2023-02-15T16:29:17;0.20;;;0.20;;
20679;SDS011;10499;47.494;7.608;2023-02-15T16:37:23;0.20;;;0.20;;
20679;SDS011;10499;47.494;7.608;2023-02-15T16:39:52;0.20;;;0.20;;
20679;SDS011;10499;47.494;7.608;2023-02-15T16:42:19;0.20;;;0.20;;
20679;SDS011;10499;47.494;7.608;2023-02-15T16:44:46;0.20;;;0.20;;
20679;SDS011;10499;47.494;7.608;2023-02-15T16:47:20;0.20;;;0.20;;
20679;SDS011;10499;47.494;7.608;2023-02-15T16:49:53;0.20;;;0.20;;
20679;SDS011;10499;47.494;7.608;2023-02-15T16:52:23;0.20;;;0.20;;
20679;SDS011;10499;47.494;7.608;2023-02-15T16:54:55;0.20;;;0.20;;
20679;SDS011;10499;47.494;7.608;2023-02-15T16:57:28;0.20;;;0.20;;
20679;SDS011;10499;47.494;7.608;2023-02-15T17:00:00;0.20;;;0.20;;
20679;SDS011;10499;47.494;7.608;2023-02-15T17:02:31;0.20;;;0.20;;
20679;SDS011;10499;47.494;7.608;2023-02-15T17:07:48;0.20;;;0.20;;
20679;SDS011;10499;47.494;7.608;2023-02-15T17:13:01;0.20;;;0.20;;
20679;SDS011;10499;47.494;7.608;2023-02-15T17:15:39;0.20;;;0.20;;
20679;SDS011;10499;47.494;7.608;2023-02-15T17:18:19;0.20;;;0.20;;
20679;SDS011;10499;47.494;7.608;2023-02-15T17:20:48;0.20;;;0.20;;
20679;SDS011;10499;47.494;7.608;2023-02-15T17:25:58;0.20;;;0.20;;
20679;SDS011;10499;47.494;7.608;2023-02-15T17:28:30;0.20;;;0.20;;
20679;SDS011;10499;47.494;7.608;2023-02-15T17:30:56;0.20;;;0.20;;
20679;SDS011;10499;47.494;7.608;2023-02-15T17:36:31;0.20;;;0.20;;
20679;SDS011;10499;47.494;7.608;2023-02-15T17:41:22;0.20;;;0.20;;
20679;SDS011;10499;47.494;7.608;2023-02-15T17:43:52;0.30;;;0.30;;
20679;SDS011;10499;47.494;7.608;2023-02-15T17:46:17;0.30;;;0.30;;
20679;SDS011;10499;47.494;7.608;2023-02-15T17:48:47;0.30;;;0.30;;
20679;SDS011;10499;47.494;7.608;2023-02-15T17:51:14;0.20;;;0.20;;
20679;SDS011;10499;47.494;7.608;2023-02-15T17:53:42;0.30;;;0.30;;
20679;SDS011;10499;47.494;7.608;2023-02-15T17:56:26;0.30;;;0.30;;
20679;SDS011;10499;47.494;7.608;2023-02-15T17:58:52;0.30;;;0.30;;
20679;SDS011;10499;47.494;7.608;2023-02-15T18:01:18;0.30;;;0.30;;
20679;SDS011;10499;47.494;7.608;2023-02-15T18:04:04;0.30;;;0.30;;
20679;SDS011;10499;47.494;7.608;2023-02-15T18:06:51;0.30;;;0.30;;
20679;SDS011;10499;47.494;7.608;2023-02-15T18:09:35;0.30;;;0.30;;
20679;SDS011;10499;47.494;7.608;2023-02-15T18:12:28;0.30;;;0.30;;
20679;SDS011;10499;47.494;7.608;2023-02-15T18:14:59;0.30;;;0.30;;
20679;SDS011;10499;47.494;7.608;2023-02-15T18:17:27;0.30;;;0.30;;
20679;SDS011;10499;47.494;7.608;2023-02-15T18:19:57;0.20;;;0.20;;
20679;SDS011;10499;47.494;7.608;2023-02-15T18:22:26;0.30;;;0.30;;
20679;SDS011;10499;47.494;7.608;2023-02-15T18:24:53;0.30;;;0.30;;
20679;SDS011;10499;47.494;7.608;2023-02-15T18:27:19;0.30;;;0.30;;
20679;SDS011;10499;47.494;7.608;2023-02-15T18:29:45;0.30;;;0.30;;
20679;SDS011;10499;47.494;7.608;2023-02-15T18:32:17;0.30;;;0.30;;
20679;SDS011;10499;47.494;7.608;2023-02-15T18:34:45;0.30;;;0.30;;
20679;SDS011;10499;47.494;7.608;2023-02-15T18:37:16;0.30;;;0.30;;
20679;SDS011;10499;47.494;7.608;2023-02-15T18:39:45;0.30;;;0.30;;
20679;SDS011;10499;47.494;7.608;2023-02-15T18:42:27;0.30;;;0.30;;
20679;SDS011;10499;47.494;7.608;2023-02-15T18:45:00;0.30;;;0.30;;
20679;SDS011;10499;47.494;7.608;2023-02-15T18:47:38;0.30;;;0.30;;
20679;SDS011;10499;47.494;7.608;2023-02-15T18:50:04;0.30;;;0.30;;
20679;SDS011;10499;47.494;7.608;2023-02-15T18:52:31;0.30;;;0.30;;
20679;SDS011;10499;47.494;7.608;2023-02-15T18:55:01;0.30;;;0.30;;
20679;SDS011;10499;47.494;7.608;2023-02-15T18:57:31;0.30;;;0.30;;
20679;SDS011;10499;47.494;7.608;2023-02-15T18:59:56;0.30;;;0.30;;
20679;SDS011;10499;47.494;7.608;2023-02-15T19:02:22;0.30;;;0.30;;
20679;SDS011;10499;47.494;7.608;2023-02-15T19:04:48;0.30;;;0.30;;
20679;SDS011;10499;47.494;7.608;2023-02-15T19:07:23;0.30;;;0.30;;
20679;SDS011;10499;47.494;7.608;2023-02-15T19:09:52;0.30;;;0.30;;
20679;SDS011;10499;47.494;7.608;2023-02-15T19:12:20;0.30;;;0.30;;
20679;SDS011;10499;47.494;7.608;2023-02-15T19:14:45;0.30;;;0.30;;
20679;SDS011;10499;47.494;7.608;2023-02-15T19:17:15;0.23;;;0.23;;
20679;SDS011;10499;47.494;7.608;2023-02-15T19:19:43;0.30;;;0.30;;
20679;SDS011;10499;47.494;7.608;2023-02-15T19:22:13;0.30;;;0.30;;